createdAt,value
2023-05-14T00:01:00.207Z,1.13
2023-05-14T00:03:26.768Z,1.38
2023-05-14T00:05:53.274Z,1.30
2023-05-14T00:08:19.747Z,1.50
2023-05-14T00:10:46.262Z,1.67
2023-05-14T00:13:12.714Z,1.40
2023-05-14T00:15:39.268Z,1.50
2023-05-14T00:18:06.973Z,1.48
2023-05-14T00:20:33.537Z,1.50
2023-05-14T00:23:00.010Z,1.98
2023-05-14T00:25:26.477Z,2.60
2023-05-14T00:27:52.929Z,2.22
2023-05-14T00:30:19.418Z,2.17
2023-05-14T00:32:45.989Z,2.55
2023-05-14T00:35:12.493Z,2.35
2023-05-14T00:37:39.115Z,2.70
2023-05-14T00:40:07.148Z,3.15
2023-05-14T00:42:33.676Z,2.70
2023-05-14T00:45:00.402Z,2.42
2023-05-14T00:47:27.042Z,2.38
2023-05-14T00:49:53.538Z,2.00
2023-05-14T00:52:20.248Z,2.00
2023-05-14T00:54:46.950Z,2.40
2023-05-14T00:57:13.651Z,2.40
2023-05-14T00:59:41.782Z,2.10
2023-05-14T01:02:08.337Z,2.00
2023-05-14T01:04:35.299Z,2.03
2023-05-14T01:07:24.379Z,1.60
2023-05-14T01:09:59.759Z,1.40
2023-05-14T01:12:34.666Z,1.13
2023-05-14T01:15:12.068Z,1.20
2023-05-14T01:17:43.667Z,1.20
2023-05-14T01:20:10.467Z,1.27
2023-05-14T01:22:37.406Z,1.15
2023-05-14T01:25:05.561Z,1.15
2023-05-14T01:27:37.885Z,1.10
2023-05-14T01:30:23.550Z,1.27
2023-05-14T01:32:52.008Z,1.20
2023-05-14T01:35:19.470Z,1.58
2023-05-14T01:37:45.951Z,1.08
2023-05-14T01:40:12.462Z,1.27
2023-05-14T01:42:38.912Z,1.05
2023-05-14T01:45:05.806Z,1.30
2023-05-14T01:47:32.347Z,1.10
2023-05-14T01:49:58.844Z,1.23
2023-05-14T01:52:25.287Z,1.10
2023-05-14T01:54:51.767Z,1.10
2023-05-14T01:57:18.225Z,1.20
2023-05-14T01:59:44.690Z,1.15
2023-05-14T02:02:11.175Z,1.05
2023-05-14T02:04:37.629Z,1.15
2023-05-14T02:07:04.174Z,1.30
2023-05-14T02:09:30.775Z,1.20
2023-05-14T02:11:57.264Z,0.95
2023-05-14T02:14:23.743Z,1.10
2023-05-14T02:16:51.351Z,1.13
2023-05-14T02:19:17.872Z,1.00
2023-05-14T02:21:44.716Z,1.10
2023-05-14T02:24:11.200Z,1.15
2023-05-14T02:26:37.642Z,0.82
2023-05-14T02:29:04.163Z,1.13
2023-05-14T02:31:30.985Z,1.08
2023-05-14T02:33:57.484Z,1.20
2023-05-14T02:36:23.962Z,1.00
2023-05-14T02:38:50.610Z,1.02
2023-05-14T02:41:17.067Z,1.17
2023-05-14T02:43:43.543Z,1.00
2023-05-14T02:46:10.039Z,0.98
2023-05-14T02:48:36.490Z,1.10
2023-05-14T02:51:03.003Z,1.10
2023-05-14T02:53:29.490Z,1.10
2023-05-14T02:55:56.226Z,1.10
2023-05-14T02:58:25.303Z,1.17
2023-05-14T03:00:53.331Z,1.13
2023-05-14T03:03:20.421Z,1.20
2023-05-14T03:05:47.326Z,1.20
2023-05-14T03:08:13.801Z,1.10
2023-05-14T03:10:40.338Z,0.90
2023-05-14T03:13:06.839Z,1.08
2023-05-14T03:15:33.299Z,1.10
2023-05-14T03:17:59.827Z,0.80
2023-05-14T03:20:26.623Z,0.80
2023-05-14T03:22:53.156Z,0.90
2023-05-14T03:25:19.679Z,0.77
2023-05-14T03:27:46.221Z,1.10
2023-05-14T03:30:12.924Z,1.10
2023-05-14T03:32:39.456Z,0.90
2023-05-14T03:35:06.476Z,0.98
2023-05-14T03:37:32.926Z,1.00
2023-05-14T03:39:59.377Z,1.10
2023-05-14T03:42:25.832Z,1.35
2023-05-14T03:44:52.322Z,1.98
2023-05-14T03:47:18.785Z,2.63
2023-05-14T03:49:45.254Z,3.22
2023-05-14T03:52:11.708Z,4.47
2023-05-14T03:54:38.609Z,5.28
2023-05-14T03:57:05.151Z,5.10
2023-05-14T03:59:31.725Z,5.18
2023-05-14T04:01:58.184Z,6.35
2023-05-14T04:04:24.691Z,6.82
2023-05-14T04:06:51.218Z,7.72
2023-05-14T04:09:17.661Z,8.30
2023-05-14T04:11:44.117Z,8.35
2023-05-14T04:14:10.608Z,9.38
2023-05-14T04:16:37.111Z,8.93
2023-05-14T04:19:05.014Z,9.40
2023-05-14T04:21:31.679Z,9.40
2023-05-14T04:23:58.163Z,8.90
2023-05-14T04:26:24.684Z,8.85
2023-05-14T04:28:51.206Z,10.30
2023-05-14T04:31:17.654Z,9.85
2023-05-14T04:33:44.131Z,10.55
2023-05-14T04:36:10.626Z,10.10
2023-05-14T04:38:37.089Z,11.13
2023-05-14T04:41:03.635Z,10.40
2023-05-14T04:43:30.258Z,10.73
2023-05-14T04:45:56.878Z,10.77
2023-05-14T04:48:23.432Z,10.18
2023-05-14T04:50:49.921Z,10.45
2023-05-14T04:53:16.372Z,11.25
2023-05-14T04:55:42.831Z,11.02
2023-05-14T04:58:09.289Z,10.40
2023-05-14T05:00:35.811Z,11.00
2023-05-14T05:03:02.323Z,12.02
2023-05-14T05:05:28.881Z,11.00
2023-05-14T05:07:55.407Z,11.25
2023-05-14T05:10:22.108Z,11.40
2023-05-14T05:12:48.713Z,11.38
2023-05-14T05:15:15.416Z,11.52
2023-05-14T05:17:42.055Z,11.88
2023-05-14T05:20:10.108Z,11.65
2023-05-14T05:22:36.703Z,10.73
2023-05-14T05:25:06.221Z,11.65
2023-05-14T05:27:33.402Z,11.45
2023-05-14T05:30:01.572Z,11.30
2023-05-14T05:32:28.075Z,11.55
2023-05-14T05:34:54.521Z,12.82
2023-05-14T05:37:21.043Z,12.75
2023-05-14T05:39:48.295Z,12.50
2023-05-14T05:42:14.822Z,11.75
2023-05-14T05:44:41.318Z,12.05
2023-05-14T05:47:07.771Z,13.55
2023-05-14T05:49:36.865Z,11.43
2023-05-14T05:52:04.131Z,11.25
2023-05-14T05:54:32.181Z,11.48
2023-05-14T05:56:59.221Z,11.95
2023-05-14T05:59:25.707Z,11.18
2023-05-14T06:01:52.195Z,12.40
2023-05-14T06:04:18.686Z,11.40
2023-05-14T06:06:45.428Z,10.15
2023-05-14T06:09:13.134Z,11.15
2023-05-14T06:11:39.578Z,11.32
2023-05-14T06:14:06.043Z,11.27
2023-05-14T06:16:32.560Z,10.85
2023-05-14T06:18:59.068Z,10.65
2023-05-14T06:21:25.575Z,10.32
2023-05-14T06:23:52.028Z,10.88
2023-05-14T06:26:18.529Z,10.07
2023-05-14T06:28:45.045Z,10.52
2023-05-14T06:31:11.527Z,10.65
2023-05-14T06:33:38.059Z,10.50
2023-05-14T06:36:05.554Z,10.40
2023-05-14T06:38:32.035Z,10.57
2023-05-14T06:40:58.518Z,10.23
2023-05-14T06:43:25.150Z,10.30
2023-05-14T06:45:51.834Z,10.32
2023-05-14T06:48:21.502Z,10.38
2023-05-14T06:50:48.433Z,10.25
2023-05-14T06:53:15.256Z,9.90
2023-05-14T06:55:41.813Z,9.88
2023-05-14T06:58:08.503Z,8.93
2023-05-14T07:00:35.010Z,10.02
2023-05-14T07:03:01.579Z,10.10
2023-05-14T07:05:28.120Z,9.85
2023-05-14T07:07:54.609Z,10.95
2023-05-14T07:10:21.241Z,9.35
2023-05-14T07:12:47.890Z,9.82
2023-05-14T07:15:14.386Z,9.85
2023-05-14T07:17:41.100Z,10.05
2023-05-14T07:20:08.128Z,9.10
2023-05-14T07:22:34.583Z,9.35
2023-05-14T07:25:01.310Z,9.10
2023-05-14T07:27:27.845Z,8.60
2023-05-14T07:29:54.311Z,8.45
2023-05-14T07:32:20.845Z,9.40
2023-05-14T07:34:47.373Z,8.60
2023-05-14T07:37:13.861Z,8.85
2023-05-14T07:39:41.650Z,8.18
2023-05-14T07:42:08.167Z,8.68
2023-05-14T07:44:34.622Z,8.88
2023-05-14T07:47:01.173Z,9.07
2023-05-14T07:49:27.751Z,8.63
2023-05-14T07:51:54.213Z,8.73
2023-05-14T07:54:20.802Z,8.88
2023-05-14T07:56:47.266Z,8.55
2023-05-14T07:59:13.732Z,8.82
2023-05-14T08:01:40.596Z,9.35
2023-05-14T08:04:07.161Z,8.63
2023-05-14T08:06:34.055Z,9.07
2023-05-14T08:09:00.684Z,9.55
2023-05-14T08:11:27.166Z,8.60
2023-05-14T08:13:53.643Z,8.25
2023-05-14T08:16:20.173Z,8.50
2023-05-14T08:18:47.084Z,8.88
2023-05-14T08:21:13.597Z,8.82
2023-05-14T08:23:40.053Z,8.35
2023-05-14T08:26:06.636Z,9.00
2023-05-14T08:28:33.107Z,8.68
2023-05-14T08:30:59.659Z,8.07
2023-05-14T08:33:26.166Z,8.98
2023-05-14T08:35:53.035Z,8.40
2023-05-14T08:38:19.530Z,8.18
2023-05-14T08:40:50.077Z,8.02
2023-05-14T08:43:17.752Z,7.57
2023-05-14T08:45:44.304Z,7.97
2023-05-14T08:48:11.030Z,7.72
2023-05-14T08:50:37.814Z,7.90
2023-05-14T08:53:04.299Z,8.18
2023-05-14T08:55:30.813Z,7.60
2023-05-14T08:57:57.326Z,7.57
2023-05-14T09:00:24.855Z,7.50
2023-05-14T09:02:51.813Z,7.30
2023-05-14T09:05:18.379Z,7.35
2023-05-14T09:07:45.052Z,6.85
2023-05-14T09:10:11.582Z,6.93
2023-05-14T09:12:38.053Z,6.18
2023-05-14T09:15:06.481Z,6.75
2023-05-14T09:17:33.020Z,6.80
2023-05-14T09:19:59.509Z,6.35
2023-05-14T09:22:26.111Z,7.00
2023-05-14T09:25:06.180Z,6.68
2023-05-14T09:27:34.352Z,6.32
2023-05-14T09:30:07.402Z,5.65
2023-05-14T09:32:41.014Z,6.30
2023-05-14T09:35:18.153Z,5.70
2023-05-14T09:37:46.239Z,5.47
2023-05-14T09:40:13.294Z,5.40
2023-05-14T09:42:40.179Z,5.53
2023-05-14T09:45:09.823Z,5.20
2023-05-14T09:47:37.142Z,6.03
2023-05-14T09:50:04.352Z,5.43
2023-05-14T09:52:31.031Z,5.00
2023-05-14T09:54:57.551Z,5.00
2023-05-14T09:57:24.228Z,4.68
2023-05-14T09:59:50.700Z,4.43
2023-05-14T10:02:37.871Z,4.30
2023-05-14T10:05:05.938Z,4.63
2023-05-14T10:07:39.144Z,4.30
2023-05-14T10:10:07.610Z,4.20
2023-05-14T10:12:34.635Z,4.10
2023-05-14T10:15:06.964Z,3.58
2023-05-14T10:17:34.730Z,3.72
2023-05-14T10:20:02.642Z,3.28
2023-05-14T10:22:31.910Z,3.42
2023-05-14T10:24:58.358Z,3.20
2023-05-14T10:27:24.895Z,3.20
2023-05-14T10:29:54.959Z,3.30
2023-05-14T10:32:25.725Z,3.38
2023-05-14T10:34:52.987Z,3.55
2023-05-14T10:37:26.338Z,3.50
2023-05-14T10:40:00.183Z,3.13
2023-05-14T10:42:28.226Z,3.75
2023-05-14T10:45:02.695Z,3.38
2023-05-14T10:47:29.303Z,3.03
2023-05-14T10:49:56.766Z,3.10
2023-05-14T10:52:23.335Z,3.33
2023-05-14T10:54:55.880Z,2.75
2023-05-14T10:57:23.691Z,6.00
2023-05-14T10:59:54.862Z,5.88
2023-05-14T11:02:26.145Z,4.15
2023-05-14T11:05:05.909Z,4.10
2023-05-14T11:07:38.095Z,3.60
2023-05-14T11:10:06.057Z,3.20
2023-05-14T11:12:33.510Z,3.03
2023-05-14T11:15:00.855Z,2.85
2023-05-14T11:17:28.089Z,3.10
2023-05-14T11:19:55.501Z,2.95
2023-05-14T11:22:22.475Z,3.40
2023-05-14T11:24:49.063Z,3.05
2023-05-14T11:27:15.998Z,2.95
2023-05-14T11:29:48.310Z,2.67
2023-05-14T11:32:15.483Z,3.03
2023-05-14T11:34:42.401Z,2.83
2023-05-14T11:37:09.193Z,2.90
2023-05-14T11:39:37.399Z,2.58
2023-05-14T11:42:14.720Z,3.00
2023-05-14T11:44:41.570Z,2.88
2023-05-14T11:47:08.098Z,2.50
2023-05-14T11:49:37.332Z,2.63
2023-05-14T11:52:07.583Z,2.90
2023-05-14T11:54:34.269Z,2.85
2023-05-14T11:57:10.765Z,2.70
2023-05-14T11:59:37.767Z,2.15
2023-05-14T12:02:07.122Z,2.50
2023-05-14T12:04:33.727Z,2.20
2023-05-14T12:07:00.479Z,2.17
2023-05-14T12:09:26.951Z,2.50
2023-05-14T12:11:53.453Z,2.60
2023-05-14T12:14:23.473Z,2.28
2023-05-14T12:16:50.489Z,2.30
2023-05-14T12:19:18.439Z,2.20
2023-05-14T12:21:46.202Z,2.38
2023-05-14T12:24:13.604Z,1.90
2023-05-14T12:26:41.539Z,1.85
2023-05-14T12:29:08.073Z,2.05
2023-05-14T12:31:34.659Z,1.77
2023-05-14T12:34:01.185Z,1.50
2023-05-14T12:36:27.647Z,1.70
2023-05-14T12:38:59.662Z,1.50
2023-05-14T12:41:26.154Z,1.10
2023-05-14T12:43:52.638Z,0.90
2023-05-14T12:46:19.175Z,0.88
2023-05-14T12:48:46.276Z,0.80
2023-05-14T12:51:12.979Z,0.80
2023-05-14T12:53:39.446Z,1.08
2023-05-14T12:56:06.228Z,1.05
2023-05-14T12:58:32.747Z,0.90
2023-05-14T13:00:59.593Z,1.13
2023-05-14T13:03:26.379Z,1.10
2023-05-14T13:05:53.271Z,1.10
2023-05-14T13:08:21.949Z,1.00
2023-05-14T13:10:48.480Z,1.30
2023-05-14T13:13:15.622Z,1.20
2023-05-14T13:15:42.126Z,1.00
2023-05-14T13:18:08.761Z,1.10
2023-05-14T13:20:35.382Z,1.13
2023-05-14T13:23:01.857Z,0.90
2023-05-14T13:25:28.348Z,1.00
2023-05-14T13:27:55.181Z,0.90
2023-05-14T13:30:21.685Z,0.90
2023-05-14T13:32:48.244Z,0.90
2023-05-14T13:35:14.850Z,0.60
2023-05-14T13:37:43.320Z,0.77
2023-05-14T13:40:10.297Z,0.70
2023-05-14T13:42:37.103Z,0.63
2023-05-14T13:45:04.074Z,0.88
2023-05-14T13:47:31.209Z,0.80
2023-05-14T13:49:57.750Z,0.70
2023-05-14T13:52:24.247Z,0.75
2023-05-14T13:54:50.900Z,0.68
2023-05-14T13:57:17.362Z,0.80
2023-05-14T13:59:43.825Z,0.93
2023-05-14T14:02:10.286Z,0.80
2023-05-14T14:04:36.764Z,0.88
2023-05-14T14:07:03.384Z,1.00
2023-05-14T14:09:34.870Z,0.70
2023-05-14T14:12:03.489Z,0.55
2023-05-14T14:14:30.053Z,0.68
2023-05-14T14:16:56.526Z,0.77
2023-05-14T14:19:23.730Z,0.60
2023-05-14T14:24:17.641Z,0.60
2023-05-14T14:26:44.149Z,0.50
2023-05-14T14:29:10.590Z,0.60
2023-05-14T14:31:37.204Z,0.60
2023-05-14T14:34:03.869Z,0.90
2023-05-14T14:36:31.611Z,0.70
2023-05-14T14:38:58.167Z,0.90
2023-05-14T14:41:24.646Z,0.80
2023-05-14T14:43:51.146Z,0.73
2023-05-14T14:46:17.638Z,0.90
2023-05-14T14:48:44.118Z,1.20
2023-05-14T14:51:10.618Z,1.60
2023-05-14T14:53:37.279Z,1.40
2023-05-14T14:56:04.403Z,1.40
2023-05-14T14:58:31.222Z,1.63
2023-05-14T15:00:58.038Z,1.20
2023-05-14T15:03:25.252Z,1.67
2023-05-14T15:05:53.304Z,1.50
2023-05-14T15:08:20.832Z,1.33
2023-05-14T15:10:47.354Z,1.20
2023-05-14T15:13:13.854Z,1.00
2023-05-14T15:15:40.312Z,1.20
2023-05-14T15:18:06.810Z,1.60
2023-05-14T15:20:33.342Z,1.38
2023-05-14T15:22:59.811Z,1.40
2023-05-14T15:25:26.770Z,1.30
2023-05-14T15:27:53.496Z,1.15
2023-05-14T15:30:20.014Z,1.08
2023-05-14T15:32:46.746Z,0.90
2023-05-14T15:35:13.327Z,0.90
2023-05-14T15:37:41.222Z,1.00
2023-05-14T15:40:08.468Z,0.80
2023-05-14T15:42:39.255Z,0.80
2023-05-14T15:45:06.019Z,0.80
2023-05-14T15:47:32.601Z,0.90
2023-05-14T15:49:59.909Z,0.90
2023-05-14T15:52:26.513Z,1.10
2023-05-14T15:54:54.195Z,1.30
2023-05-14T15:57:20.725Z,1.27
2023-05-14T15:59:47.331Z,1.30
2023-05-14T16:02:14.341Z,1.20
2023-05-14T16:04:40.815Z,1.20
2023-05-14T16:07:09.793Z,1.30
2023-05-14T16:09:36.588Z,1.40
2023-05-14T16:12:03.344Z,1.58
2023-05-14T16:14:29.801Z,1.30
2023-05-14T16:16:56.338Z,1.13
2023-05-14T16:19:22.966Z,1.40
2023-05-14T16:21:49.437Z,1.27
2023-05-14T16:24:17.929Z,1.10
2023-05-14T16:26:44.446Z,0.90
2023-05-14T16:29:10.961Z,0.93
2023-05-14T16:31:37.735Z,0.80
2023-05-14T16:34:04.231Z,0.90
2023-05-14T16:36:31.209Z,0.90
2023-05-14T16:39:07.447Z,0.80
2023-05-14T16:41:35.306Z,1.10
2023-05-14T16:44:01.850Z,1.05
2023-05-14T16:46:29.356Z,0.82
2023-05-14T16:48:56.199Z,0.80
2023-05-14T16:51:22.755Z,0.80
2023-05-14T16:53:49.261Z,0.90
2023-05-14T16:56:15.733Z,0.90
2023-05-14T16:58:42.188Z,0.82
2023-05-14T17:01:09.828Z,1.00
2023-05-14T17:03:36.813Z,0.90
2023-05-14T17:06:04.575Z,0.82
2023-05-14T17:08:33.471Z,1.00
2023-05-14T17:11:00.143Z,1.00
2023-05-14T17:13:26.641Z,0.82
2023-05-14T17:15:53.180Z,1.10
2023-05-14T17:18:19.748Z,1.10
2023-05-14T17:20:46.337Z,1.15
2023-05-14T17:23:12.983Z,1.17
2023-05-14T17:25:39.453Z,1.10
2023-05-14T17:28:06.097Z,1.20
2023-05-14T17:30:32.580Z,1.20
2023-05-14T17:32:59.160Z,1.10
2023-05-14T17:35:25.964Z,1.10
2023-05-14T17:37:52.564Z,1.20
2023-05-14T17:40:19.019Z,1.05
2023-05-14T17:42:46.303Z,1.23
2023-05-14T17:45:13.431Z,1.10
2023-05-14T17:47:40.250Z,1.05
2023-05-14T17:50:07.291Z,1.17
2023-05-14T17:52:33.777Z,0.90
2023-05-14T17:55:00.326Z,0.90
2023-05-14T17:57:27.011Z,1.00
2023-05-14T17:59:53.504Z,1.30
2023-05-14T18:02:19.988Z,1.20
2023-05-14T18:04:46.665Z,1.10
2023-05-14T18:07:13.361Z,0.90
2023-05-14T18:09:39.834Z,0.85
2023-05-14T18:12:06.871Z,0.98
2023-05-14T18:14:33.363Z,0.90
2023-05-14T18:16:59.897Z,1.00
2023-05-14T18:19:26.403Z,1.23
2023-05-14T18:21:55.332Z,1.20
2023-05-14T18:24:22.211Z,1.50
2023-05-14T18:26:48.679Z,1.88
2023-05-14T18:29:15.232Z,1.52
2023-05-14T18:31:41.692Z,1.40
2023-05-14T18:34:08.224Z,1.40
2023-05-14T18:36:34.701Z,1.20
2023-05-14T18:39:01.141Z,1.25
2023-05-14T18:41:27.626Z,1.30
2023-05-14T18:43:54.099Z,1.60
2023-05-14T18:46:20.652Z,1.45
2023-05-14T18:48:47.179Z,1.65
2023-05-14T18:51:13.807Z,1.85
2023-05-14T18:53:40.261Z,2.10
2023-05-14T18:56:06.768Z,1.92
2023-05-14T18:58:33.230Z,2.08
2023-05-14T19:00:59.718Z,1.98
2023-05-14T19:03:26.574Z,1.90
2023-05-14T19:05:53.634Z,2.10
2023-05-14T19:08:20.106Z,1.92
2023-05-14T19:10:46.664Z,1.63
2023-05-14T19:13:13.159Z,1.60
2023-05-14T19:15:39.702Z,1.73
2023-05-14T19:18:06.434Z,1.75
2023-05-14T19:20:32.922Z,1.58
2023-05-14T19:22:59.418Z,1.60
2023-05-14T19:25:26.145Z,1.52
2023-05-14T19:27:53.631Z,1.73
2023-05-14T19:30:20.640Z,1.90
2023-05-14T19:32:47.120Z,1.50
2023-05-14T19:35:13.651Z,1.33
2023-05-14T19:37:40.129Z,1.60
2023-05-14T19:40:07.222Z,2.40
2023-05-14T19:42:33.707Z,2.22
2023-05-14T19:45:00.234Z,1.90
2023-05-14T19:47:28.364Z,2.28
2023-05-14T19:49:54.954Z,2.10
2023-05-14T19:52:21.404Z,1.73
2023-05-14T19:54:47.845Z,1.73
2023-05-14T19:57:14.305Z,1.60
2023-05-14T19:59:41.352Z,1.13
2023-05-14T20:02:09.054Z,1.40
2023-05-14T20:04:35.597Z,1.80
2023-05-14T20:07:02.075Z,1.77
2023-05-14T20:09:28.566Z,1.85
2023-05-14T20:11:55.042Z,2.20
2023-05-14T20:14:21.489Z,2.42
2023-05-14T20:16:48.912Z,2.53
2023-05-14T20:19:16.301Z,2.95
2023-05-14T20:21:42.920Z,2.47
2023-05-14T20:24:09.433Z,2.50
2023-05-14T20:26:35.956Z,2.30
2023-05-14T20:29:02.431Z,2.20
2023-05-14T20:31:29.114Z,2.60
2023-05-14T20:33:55.644Z,2.40
2023-05-14T20:36:22.254Z,2.25
2023-05-14T20:38:48.773Z,1.67
2023-05-14T20:41:15.311Z,1.90
2023-05-14T20:43:41.827Z,1.50
2023-05-14T20:46:09.009Z,1.65
2023-05-14T20:48:35.568Z,1.45
2023-05-14T20:51:04.725Z,1.55
2023-05-14T20:53:31.542Z,1.48
2023-05-14T20:55:58.957Z,1.27
2023-05-14T20:58:25.568Z,1.10
2023-05-14T21:00:52.048Z,1.88
2023-05-14T21:03:18.611Z,1.63
2023-05-14T21:05:45.614Z,1.80
2023-05-14T21:08:12.059Z,1.60
2023-05-14T21:10:38.536Z,2.20
2023-05-14T21:13:05.091Z,2.30
2023-05-14T21:15:32.533Z,2.80
2023-05-14T21:17:59.033Z,4.05
2023-05-14T21:20:25.501Z,2.30
2023-05-14T21:22:51.988Z,5.20
2023-05-14T21:25:18.509Z,2.25
2023-05-14T21:27:44.963Z,4.03
2023-05-14T21:30:12.026Z,4.80
2023-05-14T21:32:38.598Z,3.20
2023-05-14T21:35:05.464Z,2.40
2023-05-14T21:37:31.948Z,2.67
2023-05-14T21:39:58.438Z,2.15
2023-05-14T21:42:24.930Z,3.78
2023-05-14T21:44:51.420Z,2.97
2023-05-14T21:47:17.939Z,2.28
2023-05-14T21:49:44.429Z,2.10
2023-05-14T21:52:11.236Z,1.90
2023-05-14T21:54:37.721Z,2.28
2023-05-14T21:57:04.355Z,1.90
2023-05-14T21:59:30.856Z,1.50
2023-05-14T22:02:07.029Z,1.40
2023-05-14T22:04:34.279Z,1.30
2023-05-14T22:07:00.814Z,1.40
2023-05-14T22:09:27.333Z,1.02
2023-05-14T22:11:53.792Z,1.10
2023-05-14T22:14:20.310Z,1.20
2023-05-14T22:16:47.143Z,1.10
2023-05-14T22:19:15.274Z,1.20
2023-05-14T22:21:41.775Z,1.27
2023-05-14T22:24:08.328Z,1.00
2023-05-14T22:26:34.858Z,0.95
2023-05-14T22:29:01.306Z,0.93
2023-05-14T22:31:27.804Z,0.85
2023-05-14T22:33:54.342Z,1.00
2023-05-14T22:36:20.934Z,0.80
2023-05-14T22:38:47.425Z,0.80
2023-05-14T22:41:13.932Z,0.80
2023-05-14T22:43:40.392Z,0.80
2023-05-14T22:46:06.911Z,0.65
2023-05-14T22:48:33.548Z,0.90
2023-05-14T22:51:00.001Z,0.70
2023-05-14T22:53:26.507Z,0.88
2023-05-14T22:55:52.962Z,0.80
2023-05-14T22:58:19.430Z,0.90
2023-05-14T23:00:45.932Z,0.75
2023-05-14T23:03:12.401Z,0.90
2023-05-14T23:05:38.846Z,0.80
2023-05-14T23:08:05.631Z,1.08
2023-05-14T23:10:32.154Z,1.00
2023-05-14T23:12:58.656Z,1.10
2023-05-14T23:15:25.400Z,1.10
2023-05-14T23:17:52.131Z,1.10
2023-05-14T23:20:18.805Z,1.20
2023-05-14T23:22:45.304Z,1.20
2023-05-14T23:25:11.807Z,1.50
2023-05-14T23:27:38.286Z,1.25
2023-05-14T23:30:05.176Z,1.45
2023-05-14T23:32:31.749Z,1.40
2023-05-14T23:34:58.240Z,1.40
2023-05-14T23:37:24.724Z,1.50
2023-05-14T23:39:51.334Z,1.40
2023-05-14T23:42:17.832Z,1.25
2023-05-14T23:44:44.364Z,1.33
2023-05-14T23:47:10.831Z,1.20
2023-05-14T23:49:37.848Z,1.40
2023-05-14T23:52:04.568Z,1.33
2023-05-14T23:54:31.307Z,1.23
2023-05-14T23:56:57.760Z,1.33
2023-05-14T23:59:24.222Z,1.52
